createdAt,value
2022-10-13T00:00:19.551Z,11.70
2022-10-13T00:02:50.383Z,13.60
2022-10-13T00:05:21.613Z,13.10
2022-10-13T00:07:52.487Z,14.00
2022-10-13T00:10:23.430Z,12.70
2022-10-13T00:12:54.761Z,14.30
2022-10-13T00:15:26.196Z,16.40
2022-10-13T00:17:57.459Z,15.00
2022-10-13T00:20:28.304Z,15.60
2022-10-13T00:22:59.137Z,15.50
2022-10-13T00:25:30.032Z,14.20
2022-10-13T00:28:00.912Z,14.40
2022-10-13T00:33:07.789Z,14.20
2022-10-13T00:35:43.450Z,15.80
2022-10-13T00:38:16.695Z,14.50
2022-10-13T00:40:49.505Z,15.10
2022-10-13T00:43:26.017Z,13.60
2022-10-13T00:45:57.213Z,12.60
2022-10-13T00:48:30.694Z,13.50
2022-10-13T00:51:02.097Z,12.60
2022-10-13T00:53:36.445Z,12.10
2022-10-13T00:56:10.569Z,12.30
2022-10-13T00:58:42.201Z,12.40
2022-10-13T01:01:13.063Z,13.20
2022-10-13T01:03:44.013Z,13.20
2022-10-13T01:06:19.879Z,14.00
2022-10-13T01:08:55.049Z,13.00
2022-10-13T01:12:04.051Z,12.90
2022-10-13T01:14:45.272Z,15.10
2022-10-13T01:17:26.583Z,13.20
2022-10-13T01:20:33.850Z,13.00
2022-10-13T01:23:19.825Z,12.80
2022-10-13T01:26:18.353Z,13.30
2022-10-13T01:29:11.088Z,13.30
2022-10-13T01:31:50.262Z,13.40
2022-10-13T01:34:28.128Z,13.30
2022-10-13T01:37:04.795Z,12.60
2022-10-13T01:39:40.861Z,13.20
2022-10-13T01:42:17.512Z,12.50
2022-10-13T01:44:53.293Z,13.30
2022-10-13T01:47:26.599Z,13.40
2022-10-13T01:49:59.150Z,13.50
2022-10-13T01:52:36.563Z,12.60
2022-10-13T01:55:12.024Z,12.10
2022-10-13T01:57:44.479Z,13.00
2022-10-13T02:00:19.789Z,12.80
2022-10-13T02:03:01.940Z,13.00
2022-10-13T02:05:42.659Z,13.70
2022-10-13T02:08:21.144Z,12.50
2022-10-13T02:11:00.998Z,13.70
2022-10-13T02:13:33.854Z,16.00
2022-10-13T02:16:06.370Z,18.00
2022-10-13T02:18:38.322Z,15.90
2022-10-13T02:21:10.579Z,15.40
2022-10-13T02:23:43.429Z,16.30
2022-10-13T02:26:15.393Z,15.80
2022-10-13T02:28:46.400Z,15.30
2022-10-13T02:31:17.667Z,15.60
2022-10-13T02:33:48.659Z,16.10
2022-10-13T02:36:19.480Z,18.80
2022-10-13T02:38:50.508Z,18.50
2022-10-13T02:41:21.343Z,17.20
2022-10-13T02:43:52.170Z,17.00
2022-10-13T02:46:23.131Z,15.40
2022-10-13T02:48:54.069Z,15.40
2022-10-13T02:51:24.862Z,15.90
2022-10-13T02:53:55.804Z,16.10
2022-10-13T02:56:26.560Z,16.80
2022-10-13T02:58:57.403Z,17.00
2022-10-13T03:01:28.288Z,18.30
2022-10-13T03:03:59.249Z,23.00
2022-10-13T03:06:30.099Z,17.00
2022-10-13T03:09:01.122Z,15.70
2022-10-13T03:11:32.104Z,15.80
2022-10-13T03:14:02.974Z,16.40
2022-10-13T03:16:33.794Z,15.50
2022-10-13T03:19:05.056Z,16.70
2022-10-13T03:21:35.860Z,13.80
2022-10-13T03:24:07.267Z,14.40
2022-10-13T03:26:38.564Z,16.70
2022-10-13T03:29:12.803Z,15.20
2022-10-13T03:31:44.047Z,15.20
2022-10-13T03:34:16.728Z,17.30
2022-10-13T03:36:47.980Z,15.60
2022-10-13T03:39:18.837Z,15.80
2022-10-13T03:41:50.000Z,17.00
2022-10-13T03:44:21.364Z,17.30
2022-10-13T03:46:52.437Z,16.10
2022-10-13T03:49:23.374Z,15.50
2022-10-13T03:51:54.263Z,14.80
2022-10-13T03:54:25.438Z,16.50
2022-10-13T03:56:57.379Z,18.80
2022-10-13T03:59:34.171Z,16.70
2022-10-13T04:02:10.048Z,20.20
2022-10-13T04:04:44.960Z,17.90
2022-10-13T04:07:16.871Z,18.20
2022-10-13T04:09:48.735Z,15.80
2022-10-13T04:12:21.154Z,15.20
2022-10-13T04:14:52.917Z,16.80
2022-10-13T04:17:23.761Z,16.60
2022-10-13T04:19:54.963Z,16.70
2022-10-13T04:22:26.197Z,16.90
2022-10-13T04:24:57.094Z,16.40
2022-10-13T04:27:28.550Z,16.10
2022-10-13T04:30:01.478Z,17.50
2022-10-13T04:32:32.933Z,23.20
2022-10-13T04:35:07.924Z,19.90
2022-10-13T04:37:44.142Z,17.30
2022-10-13T04:40:16.758Z,16.80
2022-10-13T04:42:47.717Z,16.80
2022-10-13T04:45:19.210Z,17.00
2022-10-13T04:47:55.497Z,18.30
2022-10-13T04:50:29.753Z,19.60
2022-10-13T04:53:14.247Z,23.10
2022-10-13T04:55:49.418Z,26.20
2022-10-13T04:58:21.445Z,25.60
2022-10-13T05:00:52.749Z,26.70
2022-10-13T05:03:25.249Z,26.60
2022-10-13T05:05:56.302Z,24.90
2022-10-13T05:08:28.120Z,25.80
2022-10-13T05:11:04.821Z,24.20
2022-10-13T05:13:39.699Z,22.70
2022-10-13T05:16:19.414Z,24.40
2022-10-13T05:18:59.204Z,24.00
2022-10-13T05:21:31.017Z,21.50
2022-10-13T05:24:02.721Z,24.30
2022-10-13T05:26:37.694Z,23.00
2022-10-13T05:55:33.387Z,21.60
2022-10-13T05:58:08.443Z,21.80
2022-10-13T06:03:12.310Z,19.70
2022-10-13T06:05:47.852Z,20.00
2022-10-13T06:08:19.633Z,19.40
2022-10-13T06:10:51.618Z,18.60
2022-10-13T06:13:24.449Z,18.40
2022-10-13T06:15:55.403Z,18.90
2022-10-13T06:18:26.424Z,17.30
2022-10-13T06:20:57.380Z,15.90
2022-10-13T06:23:28.391Z,15.40
2022-10-13T06:25:59.300Z,14.30
2022-10-13T06:28:30.438Z,14.30
2022-10-13T06:31:01.473Z,14.90
2022-10-13T06:33:32.588Z,14.80
2022-10-13T06:36:06.097Z,15.70
2022-10-13T06:38:36.990Z,15.00
2022-10-13T06:41:08.924Z,13.60
2022-10-13T06:43:40.814Z,13.60
2022-10-13T06:46:14.937Z,14.20
2022-10-13T06:48:46.216Z,13.60
2022-10-13T06:51:17.276Z,12.60
2022-10-13T06:53:51.271Z,12.30
2022-10-13T06:56:25.999Z,13.30
2022-10-13T06:58:57.215Z,11.20
2022-10-13T07:01:28.511Z,12.30
2022-10-13T07:03:59.632Z,11.70
2022-10-13T07:06:30.591Z,11.30
2022-10-13T07:09:06.796Z,11.20
2022-10-13T07:11:39.056Z,11.40
2022-10-13T07:14:09.981Z,10.70
2022-10-13T07:16:41.042Z,9.90
2022-10-13T07:19:11.957Z,10.70
2022-10-13T07:21:44.604Z,10.10
2022-10-13T07:24:15.741Z,10.10
2022-10-13T07:26:47.301Z,9.20
2022-10-13T07:29:18.874Z,9.20
2022-10-13T07:31:49.849Z,9.10
2022-10-13T07:34:20.735Z,9.00
2022-10-13T07:36:52.009Z,9.50
2022-10-13T07:39:22.957Z,9.00
2022-10-13T07:41:53.981Z,10.20
2022-10-13T07:44:25.040Z,10.30
2022-10-13T07:46:56.429Z,9.80
2022-10-13T07:49:27.625Z,9.80
2022-10-13T07:51:58.899Z,10.40
2022-10-13T07:54:30.200Z,10.10
2022-10-13T07:57:01.776Z,8.80
2022-10-13T07:59:34.686Z,8.70
2022-10-13T08:02:05.620Z,7.50
2022-10-13T08:04:37.667Z,7.80
2022-10-13T08:07:09.481Z,7.30
2022-10-13T08:09:40.963Z,7.00
2022-10-13T08:12:12.297Z,7.40
2022-10-13T08:14:43.440Z,6.70
2022-10-13T08:17:14.915Z,7.60
2022-10-13T08:19:45.988Z,6.70
2022-10-13T08:22:17.215Z,7.40
2022-10-13T08:24:48.183Z,8.10
2022-10-13T08:27:26.678Z,7.80
2022-10-13T08:30:10.565Z,7.80
2022-10-13T08:32:44.866Z,7.60
2022-10-13T08:37:45.873Z,7.30
2022-10-13T08:40:21.459Z,7.30
2022-10-13T08:42:59.420Z,7.70
2022-10-13T08:45:41.288Z,7.10
2022-10-13T08:48:18.471Z,7.40
2022-10-13T08:50:52.212Z,8.00
2022-10-13T08:53:28.562Z,6.90
2022-10-13T08:56:04.518Z,6.90
2022-10-13T08:58:38.906Z,7.00
2022-10-13T09:01:17.400Z,5.90
2022-10-13T09:03:56.203Z,6.00
2022-10-13T09:06:33.840Z,7.10
2022-10-13T09:09:18.099Z,7.10
2022-10-13T09:11:51.124Z,7.40
2022-10-13T09:14:31.260Z,5.80
2022-10-13T09:17:17.563Z,6.20
2022-10-13T09:20:01.222Z,6.30
2022-10-13T09:22:34.027Z,6.70
2022-10-13T09:25:21.198Z,7.10
2022-10-13T09:27:57.392Z,8.90
2022-10-13T09:30:34.036Z,6.00
2022-10-13T09:33:22.407Z,6.50
2022-10-13T09:36:12.241Z,6.70
2022-10-13T09:38:45.116Z,6.90
2022-10-13T09:41:21.420Z,6.90
2022-10-13T09:44:13.756Z,6.90
2022-10-13T09:46:52.684Z,8.30
2022-10-13T09:49:36.020Z,6.60
2022-10-13T09:52:17.524Z,6.00
2022-10-13T09:54:51.677Z,7.10
2022-10-13T09:57:32.552Z,5.80
2022-10-13T10:00:13.220Z,7.00
2022-10-13T10:02:53.336Z,8.50
2022-10-13T10:05:29.993Z,6.90
2022-10-13T10:08:08.140Z,6.60
2022-10-13T10:10:42.522Z,6.80
2022-10-13T10:13:15.207Z,5.80
2022-10-13T10:15:54.052Z,5.70
2022-10-13T10:18:33.419Z,5.60
2022-10-13T10:21:10.925Z,6.50
2022-10-13T10:23:48.588Z,6.90
2022-10-13T10:26:30.174Z,6.50
2022-10-13T10:29:18.036Z,6.40
2022-10-13T10:32:13.308Z,5.60
2022-10-13T10:34:52.527Z,5.80
2022-10-13T10:37:38.839Z,5.20
2022-10-13T10:40:25.624Z,5.20
2022-10-13T10:43:16.751Z,4.60
2022-10-13T10:45:50.085Z,4.20
2022-10-13T10:48:25.628Z,4.20
2022-10-13T10:50:58.071Z,4.30
2022-10-13T10:53:39.679Z,3.90
2022-10-13T10:56:18.062Z,3.80
2022-10-13T10:58:56.050Z,4.00
2022-10-13T11:01:39.015Z,4.30
2022-10-13T11:04:40.474Z,4.50
2022-10-13T11:07:36.453Z,4.40
2022-10-13T11:10:26.403Z,5.40
2022-10-13T11:13:28.824Z,3.20
2022-10-13T11:16:19.910Z,2.90
2022-10-13T11:19:06.054Z,3.30
2022-10-13T11:22:22.442Z,3.30
2022-10-13T11:27:41.145Z,3.00
2022-10-13T11:32:58.512Z,3.10
2022-10-13T11:35:31.593Z,2.70
2022-10-13T11:38:18.074Z,3.40
2022-10-13T11:41:12.764Z,3.40
2022-10-13T11:43:54.526Z,3.30
2022-10-13T11:46:35.655Z,3.90
2022-10-13T11:49:37.160Z,3.40
2022-10-13T11:52:33.514Z,2.80
2022-10-13T11:55:12.888Z,3.20
2022-10-13T11:57:44.862Z,3.60
2022-10-13T12:00:20.204Z,3.80
2022-10-13T12:02:54.068Z,3.80
2022-10-13T12:05:27.511Z,3.80
2022-10-13T12:08:04.699Z,4.60
2022-10-13T12:10:38.281Z,4.10
2022-10-13T12:13:21.008Z,3.90
2022-10-13T12:15:59.962Z,3.90
2022-10-13T12:18:34.206Z,3.20
2022-10-13T12:21:12.371Z,4.10
2022-10-13T12:23:44.633Z,3.50
2022-10-13T12:26:19.493Z,4.00
2022-10-13T12:28:56.801Z,4.50
2022-10-13T12:31:30.938Z,4.20
2022-10-13T12:34:03.574Z,4.10
2022-10-13T12:36:36.444Z,3.80
2022-10-13T12:39:13.916Z,4.40
2022-10-13T12:41:47.367Z,4.50
2022-10-13T12:44:21.981Z,3.20
2022-10-13T12:46:55.763Z,3.40
2022-10-13T12:49:28.022Z,4.90
2022-10-13T12:52:06.911Z,3.60
2022-10-13T12:54:39.680Z,3.80
2022-10-13T12:57:23.631Z,4.50
2022-10-13T12:59:54.583Z,3.30
2022-10-13T13:02:29.471Z,3.90
2022-10-13T13:05:00.658Z,5.60
2022-10-13T13:07:37.451Z,3.30
2022-10-13T13:10:19.812Z,3.70
2022-10-13T13:12:51.951Z,3.80
2022-10-13T13:15:37.009Z,3.50
2022-10-13T13:18:39.871Z,3.50
2022-10-13T13:21:13.762Z,4.20
2022-10-13T13:23:51.170Z,3.70
2022-10-13T13:26:25.753Z,4.40
2022-10-13T13:28:57.825Z,4.70
2022-10-13T13:31:29.117Z,4.40
2022-10-13T13:34:00.110Z,4.80
2022-10-13T13:36:32.711Z,5.20
2022-10-13T13:39:03.891Z,4.10
2022-10-13T13:41:34.788Z,3.80
2022-10-13T13:44:05.917Z,5.00
2022-10-13T13:46:36.779Z,4.80
2022-10-13T13:49:07.799Z,4.60
2022-10-13T13:51:38.807Z,4.60
2022-10-13T13:54:09.808Z,4.20
2022-10-13T13:56:40.964Z,4.50
2022-10-13T13:59:11.806Z,4.30
2022-10-13T14:01:42.694Z,3.60
2022-10-13T14:04:13.754Z,4.00
2022-10-13T14:06:44.746Z,4.50
2022-10-13T14:09:15.625Z,4.30
2022-10-13T14:11:46.693Z,4.40
2022-10-13T14:14:17.615Z,5.30
2022-10-13T14:16:48.653Z,4.60
2022-10-13T14:19:19.512Z,5.00
2022-10-13T14:21:50.343Z,5.10
2022-10-13T14:24:22.607Z,5.40
2022-10-13T14:26:53.584Z,5.20
2022-10-13T14:29:24.882Z,4.70
2022-10-13T14:31:56.444Z,3.70
2022-10-13T14:34:27.694Z,3.90
2022-10-13T14:36:58.691Z,4.70
2022-10-13T14:39:29.851Z,4.20
2022-10-13T14:42:00.761Z,4.60
2022-10-13T14:44:31.911Z,4.60
2022-10-13T14:47:03.072Z,4.20
2022-10-13T14:49:34.086Z,4.30
2022-10-13T14:52:05.345Z,4.50
2022-10-13T14:54:40.008Z,5.00
2022-10-13T14:57:16.088Z,4.60
2022-10-13T14:59:48.773Z,5.20
2022-10-13T15:02:19.923Z,4.20
2022-10-13T15:04:57.965Z,4.50
2022-10-13T15:07:29.764Z,5.50
2022-10-13T15:10:05.446Z,6.10
2022-10-13T15:12:37.405Z,5.20
2022-10-13T15:15:10.735Z,4.60
2022-10-13T15:17:42.053Z,4.00
2022-10-13T15:20:14.606Z,4.30
2022-10-13T15:22:46.287Z,4.00
2022-10-13T15:25:19.479Z,4.90
2022-10-13T15:27:50.825Z,4.50
2022-10-13T15:30:22.091Z,5.90
2022-10-13T15:32:53.671Z,4.90
2022-10-13T15:35:25.076Z,5.10
2022-10-13T15:37:56.035Z,4.70
2022-10-13T15:40:27.567Z,4.40
2022-10-13T15:42:58.548Z,4.40
2022-10-13T15:45:29.608Z,4.90
2022-10-13T15:48:00.696Z,4.20
2022-10-13T15:50:31.840Z,5.10
2022-10-13T15:53:02.990Z,3.90
2022-10-13T15:55:34.727Z,5.30
2022-10-13T15:58:10.033Z,4.80
2022-10-13T16:00:45.469Z,5.20
2022-10-13T16:03:19.115Z,4.80
2022-10-13T16:05:50.207Z,5.20
2022-10-13T16:08:21.573Z,4.90
2022-10-13T16:10:52.864Z,4.20
2022-10-13T16:13:24.088Z,4.70
2022-10-13T16:16:01.763Z,4.60
2022-10-13T16:18:34.271Z,4.60
2022-10-13T16:21:15.799Z,4.50
2022-10-13T16:23:49.684Z,5.70
2022-10-13T16:26:20.967Z,5.70
2022-10-13T16:28:55.073Z,5.20
2022-10-13T16:31:26.589Z,4.90
2022-10-13T16:33:57.787Z,5.20
2022-10-13T16:36:29.214Z,5.00
2022-10-13T16:39:00.325Z,5.30
2022-10-13T16:41:32.055Z,5.50
2022-10-13T16:44:22.683Z,5.20
2022-10-13T16:47:05.126Z,4.90
2022-10-13T16:49:37.263Z,5.20
2022-10-13T16:52:31.870Z,4.70
2022-10-13T16:55:03.325Z,5.30
2022-10-13T16:57:35.581Z,5.00
2022-10-13T17:00:08.328Z,4.80
2022-10-13T17:02:39.521Z,4.70
2022-10-13T17:05:10.857Z,5.10
2022-10-13T17:07:42.076Z,6.00
2022-10-13T17:10:14.063Z,5.60
2022-10-13T17:12:45.316Z,4.80
2022-10-13T17:15:16.375Z,5.00
2022-10-13T17:17:47.926Z,5.00
2022-10-13T17:20:19.315Z,5.40
2022-10-13T17:22:51.793Z,4.70
2022-10-13T17:25:23.777Z,4.80
2022-10-13T17:27:55.070Z,5.80
2022-10-13T17:30:26.709Z,5.50
2022-10-13T17:33:02.071Z,5.80
2022-10-13T17:35:35.671Z,5.80
2022-10-13T17:38:06.883Z,5.70
2022-10-13T17:40:38.873Z,5.10
2022-10-13T17:43:10.147Z,5.60
2022-10-13T17:45:41.739Z,6.80
2022-10-13T17:48:14.646Z,6.10
2022-10-13T17:50:46.677Z,6.50
2022-10-13T17:53:18.629Z,5.90
2022-10-13T17:55:51.034Z,6.60
2022-10-13T17:58:23.818Z,6.80
2022-10-13T18:01:12.410Z,6.30
2022-10-13T18:03:48.659Z,6.60
2022-10-13T18:06:22.383Z,6.50
2022-10-13T18:08:54.977Z,6.70
2022-10-13T18:11:26.896Z,6.20
2022-10-13T18:13:59.942Z,6.70
2022-10-13T18:16:31.301Z,6.70
2022-10-13T18:19:02.912Z,6.90
2022-10-13T18:21:34.142Z,6.40
2022-10-13T18:24:05.451Z,7.10
2022-10-13T18:26:36.924Z,6.60
2022-10-13T18:29:09.929Z,6.10
2022-10-13T18:31:43.082Z,7.00
2022-10-13T18:34:17.261Z,6.90
2022-10-13T18:36:50.654Z,10.10
2022-10-13T18:39:25.179Z,6.60
2022-10-13T18:41:58.026Z,6.20
2022-10-13T18:44:38.334Z,6.50
2022-10-13T18:47:09.621Z,6.50
2022-10-13T18:49:41.046Z,8.30
2022-10-13T18:52:12.615Z,6.60
2022-10-13T18:54:45.573Z,7.50
2022-10-13T18:57:16.924Z,7.80
2022-10-13T18:59:48.220Z,7.60
2022-10-13T19:02:19.417Z,7.60
2022-10-13T19:04:50.812Z,8.50
2022-10-13T19:07:23.935Z,8.70
2022-10-13T19:09:56.018Z,8.50
2022-10-13T19:12:27.103Z,8.90
2022-10-13T19:14:58.935Z,9.20
2022-10-13T19:17:30.331Z,8.70
2022-10-13T19:20:01.355Z,8.80
2022-10-13T19:22:32.624Z,8.70
2022-10-13T19:25:03.973Z,10.40
2022-10-13T19:27:35.222Z,9.20
2022-10-13T19:30:07.520Z,10.10
2022-10-13T19:32:41.116Z,9.40
2022-10-13T19:35:12.944Z,11.10
2022-10-13T19:37:44.232Z,9.40
2022-10-13T19:40:16.169Z,9.50
2022-10-13T19:42:49.474Z,9.20
2022-10-13T19:45:22.645Z,9.00
2022-10-13T19:47:53.871Z,10.70
2022-10-13T19:50:25.038Z,8.90
2022-10-13T19:52:56.892Z,10.20
2022-10-13T19:55:28.438Z,8.70
2022-10-13T19:57:59.694Z,12.20
2022-10-13T20:00:31.051Z,10.40
2022-10-13T20:03:03.310Z,11.70
2022-10-13T20:05:35.594Z,11.80
2022-10-13T20:08:07.205Z,11.00
2022-10-13T20:10:40.881Z,11.30
2022-10-13T20:13:12.880Z,12.00
2022-10-13T20:15:45.878Z,13.30
2022-10-13T20:18:18.098Z,12.70
2022-10-13T20:20:49.537Z,11.90
2022-10-13T20:23:20.634Z,10.70
2022-10-13T20:25:51.637Z,11.10
2022-10-13T20:28:22.988Z,12.60
2022-10-13T20:30:54.639Z,12.70
2022-10-13T20:33:26.266Z,10.30
2022-10-13T20:36:01.300Z,12.20
2022-10-13T20:38:35.630Z,13.50
2022-10-13T20:41:15.464Z,13.50
2022-10-13T20:43:47.423Z,12.20
2022-10-13T20:46:20.615Z,12.70
2022-10-13T20:51:44.667Z,13.00
2022-10-13T20:54:17.386Z,12.00
2022-10-13T20:56:48.741Z,12.80
2022-10-13T20:59:19.866Z,12.60
2022-10-13T21:01:51.017Z,12.40
2022-10-13T21:04:22.397Z,12.80
2022-10-13T21:06:54.914Z,11.90
2022-10-13T21:09:26.161Z,14.10
2022-10-13T21:11:57.686Z,13.10
2022-10-13T21:14:30.962Z,13.30
2022-10-13T21:17:02.360Z,13.60
2022-10-13T21:19:33.805Z,12.80
2022-10-13T21:22:05.246Z,13.80
2022-10-13T21:24:36.696Z,14.80
2022-10-13T21:27:08.151Z,13.80
2022-10-13T21:29:39.201Z,14.30
2022-10-13T21:32:10.965Z,14.30
2022-10-13T21:34:44.304Z,13.90
2022-10-13T21:37:15.507Z,14.50
2022-10-13T21:39:49.043Z,14.70
2022-10-13T21:42:23.663Z,13.90
2022-10-13T21:44:58.354Z,13.60
2022-10-13T21:47:32.123Z,14.70
2022-10-13T21:50:04.907Z,15.60
2022-10-13T21:52:39.709Z,14.60
2022-10-13T21:55:12.193Z,15.70
2022-10-13T21:58:05.420Z,13.20
2022-10-13T22:00:57.873Z,14.10
2022-10-13T22:03:48.079Z,14.80
2022-10-13T22:06:22.275Z,15.80
2022-10-13T22:08:55.600Z,16.40
2022-10-13T22:11:35.280Z,16.80
2022-10-13T22:14:11.453Z,14.70
2022-10-13T22:16:44.498Z,14.80
2022-10-13T22:19:17.444Z,14.00
2022-10-13T22:21:50.470Z,17.00
2022-10-13T22:24:22.881Z,16.40
2022-10-13T22:26:54.024Z,15.70
2022-10-13T22:29:27.008Z,14.40
2022-10-13T22:32:00.553Z,16.30
2022-10-13T22:34:31.513Z,16.20
2022-10-13T22:37:02.653Z,15.60
2022-10-13T22:39:35.857Z,15.50
2022-10-13T22:42:12.571Z,15.90
2022-10-13T22:44:43.557Z,15.20
2022-10-13T22:47:14.499Z,17.00
2022-10-13T22:49:45.522Z,16.60
2022-10-13T22:52:21.000Z,16.50
2022-10-13T22:54:52.047Z,16.00
2022-10-13T22:57:23.770Z,16.40
2022-10-13T22:59:59.741Z,16.90
2022-10-13T23:02:30.668Z,17.70
2022-10-13T23:05:01.644Z,17.90
2022-10-13T23:07:32.873Z,16.90
2022-10-13T23:10:03.824Z,17.90
2022-10-13T23:12:34.801Z,17.40
2022-10-13T23:15:06.725Z,15.50
2022-10-13T23:17:37.759Z,14.20
2022-10-13T23:20:11.791Z,17.60
2022-10-13T23:22:45.663Z,16.40
2022-10-13T23:25:16.830Z,15.90
2022-10-13T23:28:22.136Z,17.60
2022-10-13T23:30:53.298Z,19.90
2022-10-13T23:33:24.699Z,17.20
2022-10-13T23:36:00.372Z,17.20
2022-10-13T23:38:32.790Z,16.90
2022-10-13T23:41:11.740Z,15.50
2022-10-13T23:43:44.319Z,17.30
2022-10-13T23:46:19.203Z,16.40
2022-10-13T23:55:49.372Z,17.50
2022-10-13T23:58:20.319Z,17.20
